Live aus Altenrhein
LIVE
LSZR 240950Z 26006KT 200V290 9999 -RA BKN037 BKN042 12/07 Q1016 NOSIG RMK F

People´s Info Center:

Öffnungszeiten Mo-Fr, 8-18 Uhr

 

info@peoples.ch

 
Aus Österreich:

T: +43 (0)5572 203 610

 

Aus CH / LI / DE:

T: +41 (0)71 858 51 60